Ana Sayfa
METAR-TAF:

METAR-TAF

Havaalanları :

Chillán, Şili

Enlem: 36-34S, Boylam: 072-02W, yükseklik: 124 m

Güncel hava durumu gözlemi

Rapor saat 22:00 UTC de 28 dakika önce yapıldı.
Rüzgar kuzeydoğudan 3 kt
Sıcaklık 11°C
Nem 82%
Basınç 1019 hPa
Görüş mesafesi: 8000 m
3500 ft yükseklikte parçalı bulutlu
20000 ft yükseklikte parçalı çok bulutlu

METAR: SCCH 162200Z 04003KT 8000 SCT035 BKN200 11/08 Q1019

Saat: 18:28 (22:28 UTC)


TAF: eksik

4.000'den fazla havaalanı için hava durumu gözlemleri ve tahminleri (METAR ve TAF raporları).

Kullanılabilir istasyonlar harita üzerinde sarı ve kırmızı noktalarla gösterilir.

İstasyonun adını görmek için fareyi noktanın üzerinde gezdirin.

Sonrasında hava gözlem ve tahminlerini görmek için tıklayın.

Haritayı değiştirmek için: yaklaştırmak için siyah artı işaretli yeşil düğmeye ve uzaklaştırmak için de eksi işaretli düğmeye hızla tıklayın; bitişik haritalar için yeşil okları kullanın.


METAR-TAF: